Time;durP1;ratioP1;P1;durP2;ratioP2;P2;SDS_P1;SDS_P2;PMS_P1;PMS_P2;Temp;Humidity;BMP_temperature;BMP_pressure;BME280_temperature;BME280_humidity;BME280_pressure;Samples;Min_cycle;Max_cycle;Signal;HPM_P1;HPM_P2
2022/07/12 00:00:12;;;;;;;7.00;5.20;;;;;;;10.73;89.03;98206.04;108344;1287;22681;-92
2022/07/12 00:03:00;;;;;;;6.80;6.10;;;;;;;10.76;89.08;98206.33;106970;1287;22628;-89
2022/07/12 00:05:28;;;;;;;7.60;5.90;;;;;;;10.78;89.06;98212.31;105767;1287;25339;-93
2022/07/12 00:07:56;;;;;;;8.50;5.90;;;;;;;10.82;89.20;98211.77;105936;1287;22566;-90
2022/07/12 00:10:24;;;;;;;9.40;6.40;;;;;;;10.87;88.96;98212.23;105726;1287;24303;-92
2022/07/12 00:12:52;;;;;;;8.50;6.80;;;;;;;10.93;89.15;98213.02;105709;1287;22705;-92
2022/07/12 00:15:21;;;;;;;9.40;5.70;;;;;;;10.99;89.28;98213.79;105761;1286;22569;-89
2022/07/12 00:17:50;;;;;;;7.20;6.30;;;;;;;11.05;89.63;98211.70;105718;1287;22699;-92
2022/07/12 00:20:18;;;;;;;9.80;7.80;;;;;;;11.10;89.49;98218.24;105936;1287;22615;-92
2022/07/12 00:22:49;;;;;;;12.70;6.80;;;;;;;11.13;89.72;98215.29;105903;1287;22586;-90
2022/07/12 00:25:17;;;;;;;8.20;7.20;;;;;;;11.18;89.71;98221.38;105754;1287;22631;-91
2022/07/12 00:27:45;;;;;;;10.10;7.70;;;;;;;11.20;89.45;98221.27;105826;1287;25253;-87
2022/07/12 00:30:13;;;;;;;9.80;7.70;;;;;;;11.22;89.67;98227.25;105527;1287;22567;-92
2022/07/12 00:32:41;;;;;;;12.40;7.70;;;;;;;11.24;89.65;98222.67;105487;1287;22662;-88
2022/07/12 00:35:09;;;;;;;11.20;8.50;;;;;;;11.27;89.92;98224.77;105102;1287;22723;-87
2022/07/12 00:37:37;;;;;;;11.90;7.90;;;;;;;11.28;90.12;98225.02;105091;1287;24110;-87
2022/07/12 00:40:08;;;;;;;9.40;7.70;;;;;;;11.29;90.17;98222.27;105161;1287;25517;-86
2022/07/12 00:42:38;;;;;;;10.80;6.80;;;;;;;11.29;90.18;98227.98;105166;1287;25248;-86
2022/07/12 00:45:07;;;;;;;10.60;7.70;;;;;;;11.30;90.49;98229.65;105080;1287;22550;-88
2022/07/12 00:47:45;;;;;;;10.30;8.20;;;;;;;11.30;90.26;98233.09;104996;1287;23960;-86
2022/07/12 00:50:15;;;;;;;9.90;8.10;;;;;;;11.31;90.38;98232.85;104998;1287;23578;-88
2022/07/12 00:52:44;;;;;;;8.70;7.80;;;;;;;11.34;90.82;98231.52;104985;1287;22583;-90
2022/07/12 00:55:12;;;;;;;9.60;8.30;;;;;;;11.35;90.51;98232.26;104985;1287;22589;-89
2022/07/12 00:57:45;;;;;;;10.90;7.10;;;;;;;11.35;90.60;98234.58;104949;1287;25259;-87
2022/07/12 01:00:25;;;;;;;12.30;7.40;;;;;;;11.35;91.06;98231.44;104911;1287;22586;-88
2022/07/12 01:02:55;;;;;;;7.70;6.50;;;;;;;11.36;91.01;98236.82;104942;1287;22545;-87
2022/07/12 01:05:23;;;;;;;8.80;6.30;;;;;;;11.36;91.91;98233.20;105120;1287;22718;-87
2022/07/12 01:07:54;;;;;;;8.90;7.20;;;;;;;11.37;93.15;98231.79;104920;1291;26711;-89
2022/07/12 01:10:22;;;;;;;9.00;6.70;;;;;;;11.34;92.93;98233.41;105792;1287;22536;-88
2022/07/12 01:12:50;;;;;;;10.50;6.50;;;;;;;11.34;92.61;98231.90;108239;1287;25353;-92
2022/07/12 01:15:21;;;;;;;10.30;7.10;;;;;;;11.36;92.69;98230.73;106750;1287;25933;-92
2022/07/12 01:17:49;;;;;;;8.50;6.70;;;;;;;11.36;93.38;98231.74;105733;1287;22724;-92
2022/07/12 01:20:21;;;;;;;9.00;6.80;;;;;;;11.36;92.88;98227.94;105386;1287;22716;-92
2022/07/12 01:22:54;;;;;;;9.10;7.10;;;;;;;11.36;92.68;98224.27;105524;1287;22501;-93
2022/07/12 01:25:23;;;;;;;8.10;6.60;;;;;;;11.37;92.71;98221.05;105495;1287;24277;-93
2022/07/12 01:27:51;;;;;;;11.10;7.50;;;;;;;11.38;92.80;98217.79;105643;1287;22717;-90
2022/07/12 01:30:20;;;;;;;8.80;7.10;;;;;;;11.37;92.65;98220.92;105480;1287;22501;-94
2022/07/12 01:32:49;;;;;;;7.40;6.10;;;;;;;11.39;92.50;98220.00;105196;1287;24223;-92
2022/07/12 01:35:19;;;;;;;10.70;6.90;;;;;;;11.41;92.46;98216.83;105143;1288;22862;-92
2022/07/12 01:37:47;;;;;;;9.80;6.80;;;;;;;11.43;92.48;98219.73;105067;1287;22708;-92
2022/07/12 01:40:16;;;;;;;9.20;6.60;;;;;;;11.43;92.32;98215.62;105111;1287;24459;-88
2022/07/12 01:42:44;;;;;;;7.80;6.60;;;;;;;11.44;92.72;98213.77;105124;1287;24432;-89
2022/07/12 01:45:12;;;;;;;8.50;6.90;;;;;;;11.43;92.53;98213.23;105178;1287;22506;-91
2022/07/12 01:47:40;;;;;;;7.90;6.50;;;;;;;11.43;92.78;98212.21;105303;1287;22580;-91
2022/07/12 01:50:10;;;;;;;11.10;7.40;;;;;;;11.39;93.04;98208.77;105281;1287;23712;-92
2022/07/12 01:52:40;;;;;;;8.40;6.50;;;;;;;11.38;92.95;98207.88;105543;1287;22711;-93
2022/07/12 01:55:09;;;;;;;7.60;6.80;;;;;;;11.37;92.78;98207.13;105932;1287;239075;-92
2022/07/12 01:57:41;;;;;;;8.10;7.00;;;;;;;11.39;92.66;98205.05;106233;1287;22564;-92
2022/07/12 02:00:10;;;;;;;11.60;7.20;;;;;;;11.41;92.45;98204.79;106237;1287;22600;-92
2022/07/12 02:02:38;;;;;;;8.30;7.20;;;;;;;11.44;92.87;98205.52;106327;1287;24415;-93
2022/07/12 02:05:06;;;;;;;9.50;7.10;;;;;;;11.46;92.59;98202.34;106065;1287;25186;-91
2022/07/12 02:07:35;;;;;;;10.20;7.00;;;;;;;11.50;92.59;98205.77;106004;1287;24322;-93
2022/07/12 02:10:07;;;;;;;9.90;7.20;;;;;;;11.53;92.69;98209.56;106178;1287;22583;-92
2022/07/12 02:12:36;;;;;;;10.30;7.70;;;;;;;11.54;92.71;98204.79;105756;1287;24318;-90
2022/07/12 02:15:07;;;;;;;9.10;8.10;;;;;;;11.54;92.83;98206.02;105199;1287;24794;-92
2022/07/12 02:17:35;;;;;;;10.60;8.30;;;;;;;11.54;93.05;98203.86;105165;1287;22573;-89
2022/07/12 02:20:03;;;;;;;8.60;7.60;;;;;;;11.54;93.05;98208.24;105085;1287;22726;-90
2022/07/12 02:22:31;;;;;;;8.90;7.60;;;;;;;11.53;93.68;98208.35;105122;1287;22578;-93
2022/07/12 02:24:59;;;;;;;10.70;8.00;;;;;;;11.52;93.29;98208.15;105237;1287;22550;-89
2022/07/12 02:27:27;;;;;;;11.70;9.00;;;;;;;11.52;93.68;98207.29;108119;1287;22549;-90
2022/07/12 02:29:55;;;;;;;12.40;9.30;;;;;;;11.50;93.84;98210.20;107514;1287;24021;-91
2022/07/12 02:32:23;;;;;;;10.00;8.90;;;;;;;11.50;93.41;98208.58;105260;1287;25089;-88
2022/07/12 02:34:51;;;;;;;13.00;9.60;;;;;;;11.53;93.57;98206.64;105118;1287;25857;-89
2022/07/12 02:37:19;;;;;;;13.70;8.90;;;;;;;11.55;93.80;98207.25;105286;1287;25372;-92
2022/07/12 02:39:47;;;;;;;12.00;8.50;;;;;;;11.56;93.80;98208.05;105232;1287;22664;-92
2022/07/12 02:42:15;;;;;;;10.00;8.50;;;;;;;11.56;94.24;98209.77;105123;1287;22552;-91
2022/07/12 02:44:43;;;;;;;9.50;8.20;;;;;;;11.56;94.29;98212.06;105081;1287;22602;-92
2022/07/12 02:47:11;;;;;;;11.00;9.50;;;;;;;11.56;93.86;98213.29;105030;1290;24109;-90
2022/07/12 02:49:39;;;;;;;14.20;10.30;;;;;;;11.57;94.25;98214.73;105188;1287;24419;-90
2022/07/12 02:52:07;;;;;;;11.80;10.30;;;;;;;11.56;94.50;98216.16;105089;1287;22691;-90
2022/07/12 02:54:34;;;;;;;12.10;10.90;;;;;;;11.53;94.99;98219.70;105222;1287;25489;-89
2022/07/12 02:57:03;;;;;;;12.60;10.30;;;;;;;11.50;94.82;98218.02;105194;1287;22494;-91
2022/07/12 02:59:30;;;;;;;11.10;9.40;;;;;;;11.49;95.06;98222.62;105103;1287;24426;-91
2022/07/12 03:01:58;;;;;;;12.40;10.60;;;;;;;11.49;95.49;98224.57;105170;1287;22550;-89
2022/07/12 03:04:26;;;;;;;13.80;10.50;;;;;;;11.49;95.38;98221.38;105108;1287;22567;-90
2022/07/12 03:06:54;;;;;;;10.60;9.40;;;;;;;11.50;95.16;98221.32;105217;1287;22724;-90
2022/07/12 03:09:22;;;;;;;10.50;8.30;;;;;;;11.51;96.20;98223.79;105223;1287;22602;-89
2022/07/12 03:11:50;;;;;;;9.10;8.20;;;;;;;11.52;96.30;98228.94;105244;1287;22720;-90
2022/07/12 03:14:18;;;;;;;8.40;7.40;;;;;;;11.52;96.26;98224.79;105186;1287;22725;-91
2022/07/12 03:16:46;;;;;;;11.20;7.70;;;;;;;11.53;96.27;98226.71;105187;1287;22508;-91
2022/07/12 03:19:14;;;;;;;10.30;7.10;;;;;;;11.55;96.15;98223.65;105429;1287;22562;-93
2022/07/12 03:21:42;;;;;;;8.70;6.80;;;;;;;11.57;96.33;98218.00;105766;1287;25367;-91
2022/07/12 03:24:10;;;;;;;12.10;7.20;;;;;;;11.59;95.91;98214.41;105355;1287;22571;-91
2022/07/12 03:26:38;;;;;;;6.80;6.00;;;;;;;11.63;96.52;98217.09;105125;1287;24333;-91
2022/07/12 03:29:06;;;;;;;6.80;5.30;;;;;;;11.65;96.51;98222.08;105248;1287;22594;-91
2022/07/12 03:31:34;;;;;;;6.60;5.30;;;;;;;11.66;96.79;98224.34;105267;1287;25380;-89
2022/07/12 03:34:02;;;;;;;7.80;5.10;;;;;;;11.66;96.53;98222.66;105221;1287;22809;-90
2022/07/12 03:36:30;;;;;;;8.20;5.40;;;;;;;11.68;96.86;98218.58;107174;1287;22695;-89
2022/07/12 03:38:57;;;;;;;8.00;5.80;;;;;;;11.70;96.66;98214.16;106642;1286;22572;-89
2022/07/12 03:41:25;;;;;;;6.80;4.80;;;;;;;11.72;97.04;98219.18;105119;1287;22706;-90
2022/07/12 03:43:53;;;;;;;6.90;4.60;;;;;;;11.76;97.92;98219.55;105159;1287;24457;-89
2022/07/12 03:46:21;;;;;;;6.70;4.70;;;;;;;11.74;97.98;98219.90;105226;1287;22673;-89
2022/07/12 03:48:49;;;;;;;6.20;4.50;;;;;;;11.74;97.71;98214.89;105200;1287;22563;-87
2022/07/12 03:51:17;;;;;;;6.60;5.00;;;;;;;11.75;97.48;98216.39;105152;1287;22555;-91
2022/07/12 03:53:45;;;;;;;5.70;4.50;;;;;;;11.78;96.98;98216.33;105023;1287;22559;-89
2022/07/12 03:57:13;;;;;;;7.40;5.00;;;;;;;11.81;96.64;98221.19;105108;1287;22743;-89
2022/07/12 03:59:01;;;;;;;5.80;4.60;;;;;;;11.83;96.89;98224.50;105136;1287;22720;-89
2022/07/12 04:01:29;;;;;;;5.40;4.40;;;;;;;11.83;96.69;98216.24;105160;1287;25342;-88
2022/07/12 04:03:57;;;;;;;6.70;4.20;;;;;;;11.85;96.19;98219.19;105124;1287;22713;-89
2022/07/12 04:06:25;;;;;;;6.80;3.90;;;;;;;11.91;96.34;98222.51;105202;1287;23314;-88
2022/07/12 04:08:53;;;;;;;5.70;3.90;;;;;;;11.97;96.56;98218.82;104969;1287;22572;-86
2022/07/12 04:11:21;;;;;;;15.00;7.10;;;;;;;12.01;96.42;98223.28;105162;1287;25297;-86
2022/07/12 04:13:49;;;;;;;6.40;5.00;;;;;;;12.04;96.86;98219.39;105184;1287;25431;-86
2022/07/12 04:16:17;;;;;;;7.10;4.20;;;;;;;12.03;96.68;98221.14;105212;1287;22600;-87
2022/07/12 04:18:45;;;;;;;7.10;4.80;;;;;;;12.04;96.86;98222.61;105190;1287;24471;-89
2022/07/12 04:21:13;;;;;;;6.40;4.50;;;;;;;12.08;97.11;98224.45;105211;1287;23900;-91
2022/07/12 04:23:41;;;;;;;6.70;4.80;;;;;;;12.06;97.18;98224.11;104971;1287;22721;-90
2022/07/12 04:26:09;;;;;;;7.20;5.20;;;;;;;12.04;97.11;98221.64;105213;1287;22742;-89
2022/07/12 04:28:37;;;;;;;7.80;4.70;;;;;;;12.04;97.64;98224.46;105250;1287;22598;-90
2022/07/12 04:31:06;;;;;;;6.50;4.90;;;;;;;12.02;97.07;98225.74;105092;1287;25329;-88
2022/07/12 04:33:35;;;;;;;7.70;5.10;;;;;;;12.10;97.00;98230.04;105138;1287;22567;-92
2022/07/12 04:36:04;;;;;;;7.80;5.60;;;;;;;12.17;97.05;98232.42;105133;1287;23117;-91
2022/07/12 04:38:32;;;;;;;9.50;5.60;;;;;;;12.22;97.04;98230.95;104974;1287;23988;-91
2022/07/12 04:41:00;;;;;;;19.30;12.10;;;;;;;12.28;96.87;98230.59;105121;1287;23418;-92
2022/07/12 04:43:28;;;;;;;9.90;7.90;;;;;;;12.33;97.17;98230.00;105107;1287;22575;-90
2022/07/12 04:46:04;;;;;;;10.70;7.90;;;;;;;12.34;97.27;98237.60;105126;1288;25349;-90
2022/07/12 04:48:32;;;;;;;11.00;8.00;;;;;;;12.33;97.20;98233.73;106199;1287;23237;-88
2022/07/12 04:51:00;;;;;;;11.70;8.20;;;;;;;12.35;96.76;98231.13;107302;1287;22700;-91
2022/07/12 04:53:29;;;;;;;8.50;7.00;;;;;;;12.39;96.77;98225.42;105236;1287;24318;-87
2022/07/12 04:55:57;;;;;;;9.50;7.00;;;;;;;12.45;97.14;98218.86;105286;1287;22596;-88
2022/07/12 04:58:25;;;;;;;11.30;8.40;;;;;;;12.53;97.19;98216.92;105188;1287;22587;-88
2022/07/12 05:00:53;;;;;;;14.00;9.90;;;;;;;12.56;97.11;98225.56;105040;1287;25424;-90
2022/07/12 05:03:23;;;;;;;14.70;9.40;;;;;;;12.54;97.31;98226.20;105086;1287;24382;-89
2022/07/12 05:05:53;;;;;;;10.70;8.60;;;;;;;12.51;97.02;98223.95;105230;1287;22768;-87
2022/07/12 05:08:22;;;;;;;11.90;7.40;;;;;;;12.50;96.91;98222.02;105051;1290;22899;-88
2022/07/12 05:10:50;;;;;;;17.60;10.90;;;;;;;12.58;97.19;98221.52;105111;1287;23055;-87
2022/07/12 05:13:17;;;;;;;15.30;9.70;;;;;;;12.65;97.11;98222.27;105085;1287;23317;-88
2022/07/12 05:15:46;;;;;;;10.90;7.70;;;;;;;12.66;97.08;98215.23;104996;1287;22569;-88
2022/07/12 05:18:13;;;;;;;9.40;8.40;;;;;;;12.73;96.99;98213.95;105004;1287;25322;-89
2022/07/12 05:20:41;;;;;;;14.30;9.10;;;;;;;12.83;96.85;98210.59;105116;1287;22703;-88
2022/07/12 05:23:17;;;;;;;14.70;9.00;;;;;;;12.91;96.64;98215.64;105050;1287;24264;-88
2022/07/12 05:25:45;;;;;;;16.40;9.30;;;;;;;13.01;96.68;98210.11;104955;1287;26682;-89
2022/07/12 05:28:15;;;;;;;10.80;8.40;;;;;;;13.07;96.52;98209.54;104929;1287;22684;-87
2022/07/12 05:30:43;;;;;;;11.60;8.90;;;;;;;13.11;96.38;98210.41;105219;1287;22599;-89
2022/07/12 05:33:14;;;;;;;9.90;8.10;;;;;;;13.13;95.87;98218.48;104979;1287;22708;-91
2022/07/12 05:35:42;;;;;;;9.50;7.60;;;;;;;13.11;95.80;98215.66;105132;1287;24382;-89
2022/07/12 05:38:10;;;;;;;10.00;7.80;;;;;;;13.10;95.67;98211.56;105185;1287;25475;-91
2022/07/12 05:40:38;;;;;;;8.80;7.30;;;;;;;13.18;95.97;98210.13;105188;1287;22645;-88
2022/07/12 05:43:06;;;;;;;11.00;8.50;;;;;;;13.22;95.32;98210.03;104983;1287;22677;-87
2022/07/12 05:45:34;;;;;;;11.50;8.50;;;;;;;13.22;95.52;98213.25;105207;1287;24398;-88
2022/07/12 05:48:02;;;;;;;13.30;9.20;;;;;;;13.25;95.32;98215.00;105160;1287;22715;-89
2022/07/12 05:50:30;;;;;;;15.00;8.40;;;;;;;13.32;95.62;98212.42;105058;1287;24438;-91
2022/07/12 05:55:45;;;;;;;9.50;8.20;;;;;;;13.49;95.40;98212.91;105166;1287;23493;-89
2022/07/12 05:58:13;;;;;;;10.70;7.60;;;;;;;13.42;94.97;98204.88;105044;1287;23381;-91
2022/07/12 06:00:41;;;;;;;10.60;8.70;;;;;;;13.41;94.68;98207.92;105017;1290;22550;-91
2022/07/12 06:03:09;;;;;;;16.10;9.60;;;;;;;13.41;95.19;98203.63;105199;1287;24389;-91
2022/07/12 06:05:37;;;;;;;15.10;9.60;;;;;;;13.46;95.05;98212.05;105146;1287;24384;-89
2022/07/12 06:08:06;;;;;;;16.40;11.70;;;;;;;13.46;94.47;98211.98;105043;1287;22779;-91
2022/07/12 06:10:36;;;;;;;10.90;8.50;;;;;;;13.46;94.34;98215.91;105161;1287;22573;-92
2022/07/12 06:13:04;;;;;;;11.90;7.30;;;;;;;13.48;94.58;98215.27;105671;1287;22685;-92
2022/07/12 06:15:32;;;;;;;9.00;7.80;;;;;;;13.56;94.49;98214.47;105306;1287;22585;-90
2022/07/12 06:18:02;;;;;;;11.90;8.40;;;;;;;13.61;94.58;98209.08;105214;1287;25591;-90
2022/07/12 06:20:30;;;;;;;10.00;7.20;;;;;;;13.62;94.59;98210.40;105389;1287;22600;-88
2022/07/12 06:22:58;;;;;;;10.30;6.60;;;;;;;13.68;94.59;98209.12;105309;1287;24338;-90
2022/07/12 06:25:26;;;;;;;18.10;9.80;;;;;;;13.75;94.63;98210.95;105099;1289;25624;-92
2022/07/12 06:28:12;;;;;;;21.20;9.20;;;;;;;13.81;94.62;98208.00;105279;1287;25449;-91
2022/07/12 06:30:40;;;;;;;13.30;8.50;;;;;;;13.89;94.48;98210.14;105428;1287;23028;-91
2022/07/12 06:33:09;;;;;;;11.30;7.60;;;;;;;13.92;93.72;98215.19;106436;1287;22648;-91
2022/07/12 06:35:37;;;;;;;12.00;6.30;;;;;;;13.91;93.70;98211.48;105551;1287;25640;-92
2022/07/12 06:38:05;;;;;;;13.30;7.30;;;;;;;13.95;93.66;98211.31;105459;1287;22584;-89
2022/07/12 06:40:33;;;;;;;10.40;6.30;;;;;;;14.01;93.15;98206.23;105219;1287;24324;-89
2022/07/12 06:43:01;;;;;;;13.10;8.50;;;;;;;14.02;93.20;98206.58;105273;1287;22673;-91
2022/07/12 06:45:29;;;;;;;11.00;7.20;;;;;;;14.08;93.37;98204.79;105252;1287;22609;-90
2022/07/12 06:47:57;;;;;;;11.50;7.40;;;;;;;14.13;93.07;98204.98;105104;1287;22707;-89
2022/07/12 06:50:25;;;;;;;14.30;8.10;;;;;;;14.18;93.20;98204.10;105487;1287;22720;-86
2022/07/12 06:52:53;;;;;;;17.10;8.30;;;;;;;14.20;93.32;98201.73;105955;1287;22586;-89
2022/07/12 06:55:21;;;;;;;14.20;8.40;;;;;;;14.26;93.37;98200.09;105549;1287;25369;-86
2022/07/12 06:57:50;;;;;;;10.30;7.00;;;;;;;14.29;92.72;98205.72;105345;1289;22601;-89
2022/07/12 07:00:18;;;;;;;13.40;8.90;;;;;;;14.28;92.57;98207.59;105331;1289;22587;-89
2022/07/12 07:02:46;;;;;;;10.80;7.30;;;;;;;14.32;92.46;98207.48;105534;1287;22682;-90
2022/07/12 07:05:15;;;;;;;13.70;7.00;;;;;;;14.32;92.25;98210.65;105511;1287;22722;-89
2022/07/12 07:07:43;;;;;;;17.00;10.30;;;;;;;14.35;92.35;98207.85;105355;1288;22745;-88
2022/07/12 07:10:11;;;;;;;25.80;14.80;;;;;;;14.49;92.58;98205.43;105437;1287;22551;-88
2022/07/12 07:12:39;;;;;;;16.20;12.90;;;;;;;14.70;92.42;98203.08;105474;1287;22557;-87
2022/07/12 07:15:08;;;;;;;10.20;7.60;;;;;;;14.83;92.04;98210.09;106761;1287;22601;-84
2022/07/12 07:17:35;;;;;;;8.10;6.30;;;;;;;14.90;91.43;98214.59;106328;1287;25340;-92
2022/07/12 07:20:04;;;;;;;12.30;6.70;;;;;;;15.00;91.01;98212.48;106506;1287;24390;-92
2022/07/12 07:22:32;;;;;;;8.50;5.10;;;;;;;15.09;90.54;98219.29;105507;1288;22687;-90
2022/07/12 07:25:00;;;;;;;10.30;5.40;;;;;;;15.12;89.89;98215.58;105470;1287;22586;-91
2022/07/12 07:27:28;;;;;;;7.10;4.70;;;;;;;15.20;90.02;98216.21;105439;1288;22902;-90
2022/07/12 07:32:42;;;;;;;10.00;4.60;;;;;;;15.56;88.68;98216.60;105229;1287;22549;-93
2022/07/12 07:35:11;;;;;;;8.60;4.60;;;;;;;15.61;88.44;98219.60;105262;1287;24205;-91
2022/07/12 07:37:39;;;;;;;8.20;4.50;;;;;;;15.69;87.39;98214.22;105358;1287;22575;-90
2022/07/12 07:40:08;;;;;;;13.40;4.60;;;;;;;15.76;87.48;98214.27;105433;1287;23988;-89
2022/07/12 07:42:35;;;;;;;10.50;4.00;;;;;;;15.89;87.46;98217.55;105216;1288;22710;-90
2022/07/12 07:45:06;;;;;;;8.00;4.10;;;;;;;15.96;85.98;98221.30;105395;1287;23722;-88
2022/07/12 07:47:49;;;;;;;7.60;4.30;;;;;;;15.99;85.57;98222.91;105421;1287;22562;-89
2022/07/12 07:50:38;;;;;;;10.30;4.20;;;;;;;16.02;86.27;98223.51;105452;1288;22701;-89
2022/07/12 07:53:06;;;;;;;7.30;3.70;;;;;;;16.11;86.01;98224.55;105446;1287;23134;-92
2022/07/12 07:55:34;;;;;;;8.10;3.50;;;;;;;16.23;84.62;98225.13;105551;1287;22762;-90
2022/07/12 07:58:02;;;;;;;5.80;3.40;;;;;;;16.41;84.37;98215.31;105579;1287;25335;-91
2022/07/12 08:00:30;;;;;;;8.00;3.80;;;;;;;16.56;82.76;98215.92;105410;1287;22877;-90
2022/07/12 08:02:58;;;;;;;6.80;3.60;;;;;;;16.42;80.79;98210.70;105454;1287;22838;-90
2022/07/12 08:05:26;;;;;;;6.10;3.30;;;;;;;16.29;81.53;98210.44;105328;1287;22579;-92
2022/07/12 08:07:57;;;;;;;6.10;3.20;;;;;;;16.24;81.80;98207.85;105463;1287;25357;-91
2022/07/12 08:10:26;;;;;;;5.50;3.50;;;;;;;16.25;80.92;98210.66;105781;1287;22751;-89
2022/07/12 08:12:54;;;;;;;5.80;3.10;;;;;;;16.31;80.68;98211.08;105710;1287;22571;-91
2022/07/12 08:15:23;;;;;;;4.60;2.90;;;;;;;16.41;78.25;98216.98;105525;1287;22569;-92
2022/07/12 08:17:51;;;;;;;7.40;3.00;;;;;;;16.59;78.28;98210.96;105417;1287;22561;-89
2022/07/12 08:20:24;;;;;;;10.30;3.80;;;;;;;16.82;76.31;98213.27;105962;1287;25957;-89
2022/07/12 08:23:12;;;;;;;6.70;3.20;;;;;;;16.82;73.93;98212.95;105917;1287;22609;-88
2022/07/12 08:25:40;;;;;;;6.20;3.20;;;;;;;16.80;75.33;98207.75;105818;1287;22517;-86
2022/07/12 08:28:08;;;;;;;7.20;3.40;;;;;;;16.77;73.72;98210.20;107331;1287;24231;-86
2022/07/12 08:30:36;;;;;;;6.00;3.00;;;;;;;16.71;74.88;98221.71;105800;1287;24285;-86
2022/07/12 08:33:13;;;;;;;4.30;2.60;;;;;;;16.79;73.98;98220.80;105368;1287;22681;-86
2022/07/12 08:35:41;;;;;;;5.50;2.40;;;;;;;16.84;71.97;98218.91;105496;1287;24239;-86
2022/07/12 08:38:10;;;;;;;5.40;2.70;;;;;;;16.81;71.16;98224.59;105439;1287;22655;-86
2022/07/12 08:40:38;;;;;;;8.60;2.80;;;;;;;16.70;70.95;98217.70;105425;1287;22763;-87
2022/07/12 08:43:06;;;;;;;4.40;2.60;;;;;;;16.70;71.22;98222.84;105371;1287;26094;-86
2022/07/12 08:45:34;;;;;;;3.80;2.20;;;;;;;16.64;70.52;98220.96;105415;1287;25428;-86
2022/07/12 08:48:02;;;;;;;6.30;2.60;;;;;;;16.50;70.28;98226.58;105454;1287;22701;-85
2022/07/12 08:50:30;;;;;;;4.20;2.40;;;;;;;16.37;70.17;98234.30;105355;1287;23471;-89
2022/07/12 08:52:58;;;;;;;4.40;2.90;;;;;;;16.16;72.14;98242.30;105965;1288;22607;-92
2022/07/12 08:55:37;;;;;;;4.40;3.10;;;;;;;15.68;74.40;98257.00;105154;1288;23852;-88
2022/07/12 08:58:15;;;;;;;4.20;2.50;;;;;;;15.23;76.68;98249.77;105585;1287;22606;-90
2022/07/12 09:00:43;;;;;;;7.10;3.10;;;;;;;14.89;78.44;98241.98;105755;1287;25514;-91
2022/07/12 09:03:17;;;;;;;7.90;2.80;;;;;;;14.74;78.85;98243.69;105355;1287;22607;-89
2022/07/12 09:05:54;;;;;;;4.40;2.80;;;;;;;14.70;80.14;98255.23;106042;1287;23286;-89
2022/07/12 09:08:28;;;;;;;4.30;2.40;;;;;;;14.67;81.41;98256.63;108068;1287;23336;-88
2022/07/12 09:11:04;;;;;;;4.40;2.50;;;;;;;14.65;82.27;98253.66;108359;1287;22542;-85
2022/07/12 09:13:52;;;;;;;4.40;2.50;;;;;;;14.61;81.84;98256.21;108110;1287;22375;-90
2022/07/12 09:16:23;;;;;;;3.30;2.40;;;;;;;14.63;82.55;98259.36;108165;1287;22309;-89
2022/07/12 09:19:11;;;;;;;6.90;2.80;;;;;;;14.66;82.74;98257.70;108424;1287;22422;-88
2022/07/12 09:21:47;;;;;;;6.20;2.60;;;;;;;14.67;83.48;98260.05;108131;1287;22458;-86
2022/07/12 09:24:16;;;;;;;6.90;3.00;;;;;;;14.67;83.61;98259.35;105693;1287;22588;-91
2022/07/12 09:26:45;;;;;;;4.60;3.00;;;;;;;14.72;83.06;98260.88;106008;1287;26099;-90
2022/07/12 09:29:13;;;;;;;3.90;2.50;;;;;;;14.78;83.53;98256.30;106523;1287;26162;-90
2022/07/12 09:37:26;;;;;;;5.50;2.90;;;;;;;15.08;84.06;98263.92;106901;1287;22549;-87
2022/07/12 09:39:54;;;;;;;6.00;2.70;;;;;;;15.16;84.43;98260.13;107260;1288;22729;-88
2022/07/12 09:42:24;;;;;;;4.10;2.40;;;;;;;15.27;84.29;98252.03;105718;1287;24252;-91
2022/07/12 09:44:57;;;;;;;4.10;2.60;;;;;;;15.42;84.07;98250.67;105580;1288;24117;-86
2022/07/12 09:47:26;;;;;;;4.70;2.50;;;;;;;15.57;84.16;98240.47;105604;1287;25366;-82
2022/07/12 09:49:54;;;;;;;6.20;3.10;;;;;;;15.74;84.27;98241.52;105362;1287;24429;-80
2022/07/12 09:52:26;;;;;;;6.00;3.30;;;;;;;15.92;83.96;98241.52;105454;1287;22572;-80
2022/07/12 09:54:55;;;;;;;5.50;2.90;;;;;;;16.19;83.65;98239.16;105384;1287;24383;-80
2022/07/12 09:57:28;;;;;;;4.90;3.00;;;;;;;16.41;82.96;98240.43;105446;1287;23330;-80
2022/07/12 10:00:00;;;;;;;5.30;2.70;;;;;;;16.66;83.12;98238.38;105176;1288;25216;-80
2022/07/12 10:02:39;;;;;;;7.70;2.90;;;;;;;16.98;82.27;98235.88;105337;1287;22734;-81
2022/07/12 10:05:09;;;;;;;6.40;2.80;;;;;;;17.15;81.01;98231.58;106569;1287;25721;-89
2022/07/12 10:07:38;;;;;;;6.10;2.60;;;;;;;17.32;79.57;98235.23;105663;1288;25560;-93
2022/07/12 10:10:08;;;;;;;6.50;2.40;;;;;;;17.35;79.36;98234.01;105376;1287;22723;-91
2022/07/12 10:12:36;;;;;;;4.80;2.30;;;;;;;17.36;77.86;98240.52;105883;1287;23370;-93
2022/07/12 10:15:20;;;;;;;4.20;2.30;;;;;;;17.25;76.33;98237.92;106401;1288;22563;-91
2022/07/12 10:17:54;;;;;;;5.40;2.30;;;;;;;17.14;76.20;98236.23;107474;1287;22562;-86
2022/07/12 10:20:26;;;;;;;5.60;2.70;;;;;;;17.10;75.83;98228.77;106758;1287;22593;-92
2022/07/12 10:23:16;;;;;;;6.50;2.60;;;;;;;17.16;76.66;98221.30;106331;1287;25485;-89
2022/07/12 10:25:44;;;;;;;5.10;2.60;;;;;;;17.39;76.75;98224.05;106586;1287;22666;-91
2022/07/12 10:28:12;;;;;;;7.00;2.90;;;;;;;17.55;75.13;98211.98;106492;1287;23150;-91
2022/07/12 10:30:45;;;;;;;6.20;2.70;;;;;;;17.70;75.71;98216.24;106877;1287;22647;-91
2022/07/12 10:33:24;;;;;;;6.30;3.10;;;;;;;17.86;74.87;98216.73;106249;1287;23077;-92
2022/07/12 10:36:08;;;;;;;5.60;2.60;;;;;;;17.96;74.58;98212.59;105924;1287;22596;-91
2022/07/12 10:38:42;;;;;;;10.10;2.80;;;;;;;18.05;74.19;98213.91;105951;1287;22568;-93
2022/07/12 10:41:18;;;;;;;6.00;2.80;;;;;;;17.97;73.50;98219.16;107109;1287;22570;-86
2022/07/12 10:44:06;;;;;;;3.50;2.60;;;;;;;17.84;72.97;98222.27;106434;1287;24047;-90
2022/07/12 10:46:36;;;;;;;5.70;2.50;;;;;;;17.71;69.52;98230.59;105500;1287;24805;-88
2022/07/12 10:49:27;;;;;;;4.80;2.40;;;;;;;17.64;70.89;98221.88;105313;1287;22550;-84
2022/07/12 10:52:11;;;;;;;6.70;2.60;;;;;;;17.82;71.60;98226.71;105269;1287;22603;-85
2022/07/12 10:54:59;;;;;;;6.60;2.50;;;;;;;17.93;71.14;98223.98;105347;1287;22666;-88
2022/07/12 10:57:49;;;;;;;7.00;2.60;;;;;;;18.04;70.72;98219.89;105134;1287;22707;-90
2022/07/12 11:00:19;;;;;;;7.10;2.60;;;;;;;18.16;70.61;98214.34;105459;1287;25214;-84
2022/07/12 11:02:47;;;;;;;4.40;2.30;;;;;;;18.26;69.82;98210.39;105165;1288;22657;-87
2022/07/12 11:05:15;;;;;;;5.30;2.50;;;;;;;18.36;69.09;98215.05;105343;1287;25260;-87
2022/07/12 11:07:43;;;;;;;6.10;2.50;;;;;;;18.49;67.96;98203.84;104910;1289;22712;-89
2022/07/12 11:10:12;;;;;;;5.20;2.60;;;;;;;18.64;67.00;98204.98;105316;1287;24277;-88
2022/07/12 11:12:40;;;;;;;5.40;2.10;;;;;;;18.67;66.19;98201.72;105495;1287;22575;-89
2022/07/12 11:15:09;;;;;;;5.00;1.70;;;;;;;18.61;66.05;98201.80;105482;1287;22574;-89
2022/07/12 11:17:37;;;;;;;5.50;2.50;;;;;;;18.59;65.84;98198.94;105484;1287;24297;-87
2022/07/12 11:20:11;;;;;;;6.00;2.30;;;;;;;18.76;65.80;98193.50;105406;1287;22741;-88
2022/07/12 11:22:41;;;;;;;3.60;2.10;;;;;;;18.98;65.71;98188.92;105481;1287;22685;-89
2022/07/12 11:25:12;;;;;;;4.80;2.30;;;;;;;19.19;65.04;98193.83;105521;1287;25481;-85
2022/07/12 11:27:40;;;;;;;4.10;2.00;;;;;;;19.25;64.25;98187.13;105552;1287;25370;-86
2022/07/12 11:30:09;;;;;;;6.20;2.10;;;;;;;19.28;65.02;98188.13;105439;1287;22712;-87
2022/07/12 11:32:43;;;;;;;4.70;2.20;;;;;;;19.24;65.39;98191.77;105357;1287;25359;-87
2022/07/12 11:35:22;;;;;;;5.70;2.50;;;;;;;19.16;65.28;98185.68;105404;1287;25387;-87
2022/07/12 11:37:54;;;;;;;4.80;2.30;;;;;;;19.06;64.84;98184.95;105407;1287;22694;-87
2022/07/12 11:40:25;;;;;;;3.50;2.10;;;;;;;19.05;64.95;98182.20;105451;1287;25339;-90
2022/07/12 11:42:54;;;;;;;6.20;2.10;;;;;;;19.05;64.70;98179.61;105451;1287;22594;-87
2022/07/12 11:45:22;;;;;;;4.70;2.50;;;;;;;19.12;65.41;98177.36;105704;1287;22758;-87